Time;durP1;ratioP1;P1;durP2;ratioP2;P2;SDS_P1;SDS_P2;PMS_P1;PMS_P2;Temp;Humidity;BMP_temperature;BMP_pressure;BME280_temperature;BME280_humidity;BME280_pressure;Samples;Min_cycle;Max_cycle;Signal;HPM_P1;HPM_P2
2022/05/29 00:00:36;;;;;;;11.15;1.00;;;;;;;8.59;48.12;101445.41;4969012;28;20155;-77
2022/05/29 00:03:01;;;;;;;8.27;0.95;;;;;;;8.56;48.29;101441.13;4978681;28;20069;-78
2022/05/29 00:05:28;;;;;;;9.68;1.17;;;;;;;7.91;49.70;101431.22;4980538;28;20050;-78
2022/05/29 00:27:30;;;;;;;16.33;2.47;;;;;;;8.36;51.06;101422.47;4856159;29;20049;-77
2022/05/29 00:30:16;;;;;;;11.93;1.77;;;;;;;7.98;51.98;101411.13;4875683;28;20051;-78
2022/05/29 00:32:43;;;;;;;13.88;2.03;;;;;;;8.28;51.43;101416.56;4937375;28;20043;-77
2022/05/29 00:36:12;;;;;;;8.23;1.25;;;;;;;8.30;51.02;101412.19;4956394;28;20061;-79
2022/05/29 00:38:40;;;;;;;16.98;2.20;;;;;;;8.29;51.38;101410.47;4967930;28;20046;-81
2022/05/29 00:41:17;;;;;;;17.15;1.58;;;;;;;8.07;51.65;101407.44;4943531;28;20063;-80
2022/05/29 00:44:16;;;;;;;9.00;2.03;;;;;;;8.29;51.44;101405.25;4984152;28;20398;-77
2022/05/29 00:50:49;;;;;;;14.18;1.90;;;;;;;8.13;51.39;101395.16;4887053;28;20069;-79
2022/05/29 00:53:15;;;;;;;14.80;1.63;;;;;;;8.30;51.09;101396.56;4952933;28;20183;-80
2022/05/29 00:55:49;;;;;;;10.88;1.40;;;;;;;8.74;50.17;101392.13;4983776;28;20030;-78
2022/05/29 00:58:20;;;;;;;8.02;2.38;;;;;;;8.66;50.16;101387.03;4971895;28;20110;-80
2022/05/29 01:00:47;;;;;;;18.98;2.13;;;;;;;8.44;50.59;101397.09;4940338;28;20056;-78
2022/05/29 01:15:15;;;;;;;16.48;1.88;;;;;;;8.44;50.63;101373.66;4948388;28;20055;-76
2022/05/29 01:18:41;;;;;;;9.05;1.83;;;;;;;8.50;50.02;101370.91;4929249;28;20073;-78
2022/05/29 01:21:28;;;;;;;19.05;2.08;;;;;;;8.51;50.29;101377.81;4950016;28;20047;-77
2022/05/29 01:24:28;;;;;;;20.48;3.25;;;;;;;8.46;50.29;101371.03;4966336;28;20078;-76
2022/05/29 01:43:06;;;;;;;10.23;1.20;;;;;;;8.62;49.90;101363.69;4898076;29;20058;-77
2022/05/29 01:46:00;;;;;;;14.38;1.73;;;;;;;8.45;50.59;101356.25;4945520;28;20050;-78
2022/05/29 01:52:39;;;;;;;;;;;;;;;8.76;50.09;101346.00;4956043;28;20058;-78
2022/05/29 01:55:11;;;;;;;10.98;1.17;;;;;;;8.65;50.09;101353.19;4917041;28;19918;-79
2022/05/29 02:04:55;;;;;;;7.68;1.52;;;;;;;8.20;50.70;101345.56;4917278;29;20044;-78
2022/05/29 02:14:44;;;;;;;16.92;2.63;;;;;;;8.11;51.39;101337.09;4967137;28;20094;-79
2022/05/29 02:36:42;;;;;;;12.45;2.05;;;;;;;8.18;52.66;101326.50;4945310;28;20234;-79
2022/05/29 02:50:48;;;;;;;15.32;1.63;;;;;;;8.59;50.67;101309.06;4892305;29;20042;-76
2022/05/29 02:53:59;;;;;;;8.95;1.05;;;;;;;8.36;51.55;101313.09;4883430;29;20185;-78
2022/05/29 03:04:35;;;;;;;8.57;0.90;;;;;;;7.72;52.05;101305.81;4907881;29;20058;-80
2022/05/29 03:07:46;;;;;;;11.63;0.82;;;;;;;7.78;52.20;101299.63;4911278;28;20105;-77
2022/05/29 03:10:22;;;;;;;8.75;1.25;;;;;;;8.07;50.96;101305.91;4957051;28;20104;-78
2022/05/29 03:13:11;;;;;;;9.05;1.52;;;;;;;8.18;50.51;101303.94;4948394;28;20126;-77
2022/05/29 03:15:55;;;;;;;16.52;1.60;;;;;;;7.95;51.16;101305.31;4980682;28;20027;-78
2022/05/29 03:18:27;;;;;;;9.52;0.95;;;;;;;8.07;51.05;101296.38;4960191;28;20046;-80
2022/05/29 03:21:22;;;;;;;14.18;1.48;;;;;;;8.05;51.20;101298.16;4970769;28;20067;-79
2022/05/29 03:24:06;;;;;;;13.30;1.52;;;;;;;8.13;51.42;101296.22;4957123;28;20181;-79
2022/05/29 03:26:52;;;;;;;6.65;1.45;;;;;;;7.97;51.91;101297.47;4978344;28;20122;-79
2022/05/29 03:29:28;;;;;;;6.85;1.65;;;;;;;7.83;52.40;101303.00;4954323;28;20054;-76
2022/05/29 03:31:55;;;;;;;14.10;1.30;;;;;;;8.14;51.46;101292.75;4941091;28;20045;-75
2022/05/29 03:45:13;;;;;;;16.38;1.67;;;;;;;8.41;50.97;101285.16;4960697;28;20053;-78
2022/05/29 03:52:54;;;;;;;19.55;1.83;;;;;;;8.06;52.82;101281.63;4922469;29;20046;-78
2022/05/29 04:03:27;;;;;;;14.82;1.48;;;;;;;7.73;53.54;101298.84;4844280;29;20121;-78
2022/05/29 04:05:54;;;;;;;16.15;1.30;;;;;;;7.72;54.28;101295.41;4870418;28;20103;-80
2022/05/29 04:13:51;;;;;;;12.32;1.08;;;;;;;7.57;55.42;101289.66;4967790;28;20109;-76
2022/05/29 04:16:38;;;;;;;5.97;1.23;;;;;;;7.32;55.96;101290.13;4971678;28;20470;-79
2022/05/29 04:19:03;;;;;;;9.75;1.77;;;;;;;7.16;56.59;101297.38;4959364;28;20266;-77
2022/05/29 04:21:29;;;;;;;9.73;1.42;;;;;;;7.46;55.44;101289.84;4959469;28;20276;-78
2022/05/29 04:23:55;;;;;;;11.50;2.05;;;;;;;7.47;55.91;101283.78;4963781;28;20047;-75
2022/05/29 04:26:38;;;;;;;14.65;2.33;;;;;;;7.41;56.58;101289.09;4982970;28;20043;-76
2022/05/29 04:29:34;;;;;;;16.88;2.10;;;;;;;7.58;55.89;101288.75;4980498;28;20082;-74
2022/05/29 04:35:03;;;;;;;11.40;1.92;;;;;;;7.31;57.11;101289.28;4976211;28;20054;-74
2022/05/29 04:37:30;;;;;;;13.65;1.65;;;;;;;7.58;56.71;101294.84;4957780;28;20050;-75
2022/05/29 04:39:56;;;;;;;11.02;1.48;;;;;;;7.54;56.85;101290.56;4966696;28;20092;-78
2022/05/29 04:42:23;;;;;;;6.32;1.65;;;;;;;7.56;56.29;101286.22;4950175;28;20046;-76
2022/05/29 04:44:48;;;;;;;12.23;1.83;;;;;;;7.50;56.85;101284.56;4963753;28;20478;-74
2022/05/29 04:47:14;;;;;;;16.00;2.03;;;;;;;7.36;57.17;101285.75;4947474;28;20047;-75
2022/05/29 04:49:43;;;;;;;19.40;2.88;;;;;;;7.71;56.42;101288.50;4948944;28;20094;-76
2022/05/29 04:52:09;;;;;;;12.20;1.60;;;;;;;7.50;56.84;101281.94;4947270;28;20027;-76
2022/05/29 04:54:37;;;;;;;25.10;2.63;;;;;;;7.67;56.51;101281.66;4977013;28;20161;-77
2022/05/29 04:57:09;;;;;;;14.05;2.22;;;;;;;7.66;55.90;101279.91;4982158;28;20034;-75
2022/05/29 04:59:36;;;;;;;24.65;1.70;;;;;;;7.76;56.17;101287.53;4954957;28;20138;-77
2022/05/29 05:02:03;;;;;;;13.35;1.55;;;;;;;7.57;56.26;101282.72;4942630;28;20576;-77
2022/05/29 05:04:29;;;;;;;16.30;1.70;;;;;;;7.73;56.07;101281.53;4945606;28;20046;-76
2022/05/29 05:06:58;;;;;;;11.70;1.33;;;;;;;7.66;56.04;101285.13;4971636;28;20038;-75
2022/05/29 05:09:25;;;;;;;16.77;2.20;;;;;;;7.43;56.41;101282.13;4979307;28;20030;-75
2022/05/29 05:11:52;;;;;;;6.35;1.08;;;;;;;7.66;55.38;101279.91;4962124;28;20039;-77
2022/05/29 05:14:19;;;;;;;19.48;1.58;;;;;;;7.58;56.08;101281.84;4944230;28;20556;-77
2022/05/29 05:16:47;;;;;;;17.83;1.90;;;;;;;7.86;55.37;101286.44;4963152;28;20055;-75
2022/05/29 05:19:14;;;;;;;10.45;1.60;;;;;;;8.09;54.62;101278.09;4949306;28;20051;-77
2022/05/29 05:21:41;;;;;;;9.40;1.38;;;;;;;7.80;54.47;101277.03;4967253;28;20375;-75
2022/05/29 05:24:07;;;;;;;6.40;1.17;;;;;;;8.06;54.48;101279.03;4966642;28;20076;-77
2022/05/29 05:26:35;;;;;;;12.95;1.10;;;;;;;7.70;54.54;101278.97;4952830;28;20042;-76
2022/05/29 05:29:01;;;;;;;7.88;0.80;;;;;;;7.63;54.98;101274.78;4976744;28;20122;-75
2022/05/29 05:31:27;;;;;;;16.05;1.33;;;;;;;8.25;53.51;101276.88;4957739;28;20027;-76
2022/05/29 05:33:53;;;;;;;12.25;1.27;;;;;;;7.78;54.57;101278.81;4924999;28;20077;-76
2022/05/29 05:36:19;;;;;;;11.93;1.38;;;;;;;8.18;53.64;101277.03;4968721;28;20035;-76
2022/05/29 05:38:46;;;;;;;6.65;1.20;;;;;;;8.36;53.68;101292.25;4953206;28;20106;-75
2022/05/29 05:41:14;;;;;;;26.17;2.33;;;;;;;7.77;55.13;101291.84;4949525;28;20050;-77
2022/05/29 05:43:41;;;;;;;17.27;2.05;;;;;;;7.68;55.13;101288.53;4952480;28;20077;-77
2022/05/29 05:46:12;;;;;;;13.52;1.10;;;;;;;7.64;55.81;101294.69;4950672;28;20107;-76
2022/05/29 05:48:39;;;;;;;12.82;1.00;;;;;;;7.51;56.04;101288.88;4964636;28;20047;-76
2022/05/29 05:51:09;;;;;;;7.25;1.40;;;;;;;7.57;56.02;101290.53;4945899;28;20169;-75
2022/05/29 05:53:37;;;;;;;8.95;1.52;;;;;;;7.22;57.02;101292.06;4949990;28;20043;-77
2022/05/29 05:56:12;;;;;;;7.50;0.98;;;;;;;7.26;57.22;101285.03;4963021;28;20915;-77
2022/05/29 05:58:58;;;;;;;8.48;1.10;;;;;;;7.63;56.26;101287.78;4933365;28;20058;-76
2022/05/29 06:01:24;;;;;;;8.63;0.77;;;;;;;7.52;56.30;101287.13;4962959;28;20055;-77
2022/05/29 06:03:51;;;;;;;9.68;1.90;;;;;;;7.43;56.25;101290.78;4965929;28;20035;-76
2022/05/29 06:06:17;;;;;;;5.85;1.17;;;;;;;7.39;56.64;101290.88;4959781;28;20042;-77
2022/05/29 06:08:43;;;;;;;9.15;1.08;;;;;;;7.17;56.35;101287.81;4975624;28;20529;-77
2022/05/29 06:11:09;;;;;;;12.10;2.17;;;;;;;7.11;56.45;101286.22;4978534;28;20027;-78
2022/05/29 06:13:35;;;;;;;7.72;1.00;;;;;;;7.51;56.02;101286.28;4957834;28;20058;-76
2022/05/29 06:16:03;;;;;;;6.28;0.80;;;;;;;7.58;55.74;101297.44;4952095;28;20110;-76
2022/05/29 06:18:29;;;;;;;10.85;1.77;;;;;;;7.29;57.00;101298.84;4967679;28;20046;-76
2022/05/29 06:20:57;;;;;;;9.15;1.48;;;;;;;7.38;56.54;101300.41;4963578;28;20026;-78
2022/05/29 06:23:23;;;;;;;4.65;0.60;;;;;;;7.66;56.40;101303.31;4959541;28;20058;-77
2022/05/29 06:25:49;;;;;;;6.20;0.80;;;;;;;7.81;56.41;101302.16;4965726;28;20058;-78
2022/05/29 06:28:14;;;;;;;10.07;0.88;;;;;;;7.62;57.04;101304.28;4976710;28;20050;-76
2022/05/29 06:30:40;;;;;;;6.10;0.98;;;;;;;7.06;58.15;101303.63;4949007;28;20110;-76
2022/05/29 06:33:06;;;;;;;10.45;1.10;;;;;;;7.35;58.00;101305.66;4955185;28;20062;-78
2022/05/29 06:35:32;;;;;;;9.77;1.58;;;;;;;7.24;58.07;101300.66;4945548;28;20212;-78
2022/05/29 06:37:58;;;;;;;8.43;1.42;;;;;;;7.73;56.67;101299.75;4925536;28;20038;-76
2022/05/29 06:40:23;;;;;;;10.75;1.27;;;;;;;7.31;57.29;101298.81;4961459;28;20076;-78
2022/05/29 06:42:49;;;;;;;12.05;0.93;;;;;;;7.71;56.12;101300.63;4941030;28;20054;-77
2022/05/29 06:45:15;;;;;;;17.45;1.52;;;;;;;7.77;55.73;101297.06;4940260;28;20428;-78
2022/05/29 06:47:40;;;;;;;12.32;1.20;;;;;;;7.80;55.23;101297.84;4941126;28;20057;-78
2022/05/29 06:50:07;;;;;;;9.18;1.30;;;;;;;7.92;55.62;101296.72;4960532;28;20051;-78
2022/05/29 06:52:33;;;;;;;12.85;1.45;;;;;;;7.99;55.48;101302.66;4971525;28;20047;-77
2022/05/29 06:55:00;;;;;;;7.43;1.08;;;;;;;7.66;56.08;101303.31;4959474;28;20031;-77
2022/05/29 06:57:44;;;;;;;20.15;2.42;;;;;;;7.85;55.02;101305.56;4962805;28;20038;-76
2022/05/29 07:08:30;;;;;;;11.80;1.38;;;;;;;8.22;54.02;101304.72;4976549;28;20042;-76
2022/05/29 07:11:24;;;;;;;21.88;1.08;;;;;;;7.83;54.17;101312.53;4983079;28;20046;-77
2022/05/29 07:13:50;;;;;;;5.00;0.52;;;;;;;7.78;54.60;101309.16;4964532;28;20054;-76
2022/05/29 07:16:16;;;;;;;11.68;1.27;;;;;;;7.89;54.57;101313.28;4966232;28;20109;-77
2022/05/29 07:18:42;;;;;;;4.03;0.68;;;;;;;7.61;55.33;101306.94;4962827;28;20043;-75
2022/05/29 07:21:08;;;;;;;9.73;1.30;;;;;;;7.51;55.50;101301.00;4951331;28;20035;-77
2022/05/29 07:23:35;;;;;;;5.93;0.90;;;;;;;8.00;54.37;101305.19;4963766;28;20055;-75
2022/05/29 07:26:03;;;;;;;16.83;2.45;;;;;;;8.12;53.83;101302.34;4964473;28;20323;-76
2022/05/29 07:28:30;;;;;;;5.53;1.25;;;;;;;7.81;54.09;101309.13;4977509;28;20169;-77
2022/05/29 07:30:56;;;;;;;12.38;0.98;;;;;;;8.12;54.29;101311.91;4963636;28;20033;-75
2022/05/29 07:33:25;;;;;;;5.35;0.77;;;;;;;8.55;53.38;101303.91;4943921;28;20166;-77
2022/05/29 07:35:52;;;;;;;11.07;1.05;;;;;;;8.50;52.89;101313.59;4949960;28;20141;-77
2022/05/29 07:38:18;;;;;;;3.67;0.85;;;;;;;8.12;53.63;101314.50;4947557;28;20077;-76
2022/05/29 07:40:47;;;;;;;6.18;0.50;;;;;;;8.28;53.65;101310.66;4960527;28;20437;-76
2022/05/29 07:43:20;;;;;;;6.28;1.08;;;;;;;8.01;53.99;101311.28;4963221;28;20042;-75
2022/05/29 07:45:56;;;;;;;15.15;0.88;;;;;;;8.06;53.80;101314.63;4926687;28;20061;-78
2022/05/29 07:49:21;;;;;;;4.35;1.13;;;;;;;7.84;54.51;101319.44;4930880;28;20055;-77
2022/05/29 07:52:33;;;;;;;6.28;0.55;;;;;;;7.98;54.41;101314.81;4936468;28;20067;-76
2022/05/29 07:54:59;;;;;;;8.98;0.68;;;;;;;7.91;54.91;101321.03;4927867;28;20081;-77
2022/05/29 07:57:26;;;;;;;14.18;1.27;;;;;;;8.24;54.27;101321.16;4931708;28;20042;-78
2022/05/29 08:00:50;;;;;;;6.30;0.85;;;;;;;8.28;53.58;101325.41;4977310;28;20049;-76
2022/05/29 08:03:17;;;;;;;10.52;1.58;;;;;;;7.58;55.41;101323.47;4968324;28;20039;-76
2022/05/29 08:05:51;;;;;;;7.38;0.30;;;;;;;8.16;54.50;101329.16;4954211;28;20046;-77
2022/05/29 08:08:21;;;;;;;6.25;0.88;;;;;;;8.03;54.41;101328.56;4897814;28;20238;-78
2022/05/29 08:11:49;;;;;;;8.20;0.80;;;;;;;8.34;54.21;101320.94;4964816;28;20062;-78
2022/05/29 08:14:15;;;;;;;4.35;0.77;;;;;;;8.45;53.62;101323.28;4970647;28;20053;-77
2022/05/29 08:20:19;;;;;;;10.15;0.70;;;;;;;9.28;51.54;101318.56;4959217;28;20054;-76
2022/05/29 08:22:50;;;;;;;6.60;0.47;;;;;;;9.69;51.08;101313.94;4953423;28;20038;-75
2022/05/29 08:31:14;;;;;;;4.35;0.75;;;;;;;8.65;52.19;101311.50;4969246;28;20035;-74
2022/05/29 08:34:25;;;;;;;7.40;0.77;;;;;;;8.32;53.57;101327.91;4942536;28;20061;-80
2022/05/29 08:36:55;;;;;;;14.85;0.50;;;;;;;8.52;52.85;101330.06;4949073;28;20165;-77
2022/05/29 08:39:22;;;;;;;8.10;1.10;;;;;;;8.57;52.60;101327.34;4958208;28;20089;-77
2022/05/29 08:41:52;;;;;;;6.30;0.50;;;;;;;8.47;53.51;101320.63;4939040;28;20294;-77
2022/05/29 08:44:28;;;;;;;4.82;0.75;;;;;;;8.30;53.15;101329.69;4947683;28;20043;-77
2022/05/29 08:47:00;;;;;;;8.35;0.70;;;;;;;8.85;51.55;101322.34;4961125;28;20493;-77
2022/05/29 08:49:47;;;;;;;6.18;1.20;;;;;;;8.93;51.18;101322.97;4973426;28;20086;-79
2022/05/29 08:52:37;;;;;;;7.30;1.15;;;;;;;8.94;50.47;101327.31;4971265;28;20404;-77
2022/05/29 08:55:18;;;;;;;11.85;1.10;;;;;;;9.18;50.28;101328.38;4938509;28;20115;-77
2022/05/29 08:58:16;;;;;;;7.15;1.05;;;;;;;8.34;52.98;101331.34;4974336;28;20049;-77
2022/05/29 09:00:50;;;;;;;8.10;0.60;;;;;;;8.24;54.15;101334.19;4945653;28;20038;-78
2022/05/29 09:03:33;;;;;;;7.30;0.65;;;;;;;8.11;54.37;101331.88;4923083;28;20133;-78
2022/05/29 09:06:36;;;;;;;4.85;0.88;;;;;;;8.78;53.04;101323.34;4980181;28;20031;-77
2022/05/29 09:10:02;;;;;;;5.32;0.80;;;;;;;8.67;52.94;101327.94;4945337;28;20094;-78
2022/05/29 09:16:29;;;;;;;10.63;1.02;;;;;;;8.88;52.92;101322.25;4972493;28;20050;-77
2022/05/29 09:19:28;;;;;;;10.18;1.33;;;;;;;8.66;52.74;101321.03;4942665;28;20050;-76
2022/05/29 09:22:02;;;;;;;5.45;0.57;;;;;;;8.23;53.81;101329.88;4975892;28;20380;-78
2022/05/29 09:24:41;;;;;;;16.55;1.05;;;;;;;8.39;53.27;101320.81;4975501;28;20047;-77
2022/05/29 09:27:15;;;;;;;10.35;0.88;;;;;;;8.13;54.87;101318.81;4946998;28;20054;-78
2022/05/29 09:29:43;;;;;;;11.73;0.93;;;;;;;8.50;53.90;101321.41;4940920;28;20062;-77
2022/05/29 09:32:56;;;;;;;9.30;0.68;;;;;;;8.57;53.23;101322.97;4963571;28;20058;-77
2022/05/29 09:36:03;;;;;;;7.88;0.50;;;;;;;8.53;54.09;101321.31;4949617;28;20066;-78
2022/05/29 09:38:57;;;;;;;9.95;1.27;;;;;;;9.39;52.25;101308.69;4949568;28;20043;-77
2022/05/29 09:42:02;;;;;;;18.98;1.45;;;;;;;9.14;51.43;101305.03;4963446;28;20046;-76
2022/05/29 09:44:36;;;;;;;6.07;1.63;;;;;;;8.92;52.53;101318.66;4966628;28;20045;-76
2022/05/29 09:50:53;;;;;;;12.43;0.47;;;;;;;9.36;51.47;101311.38;4983276;28;20047;-78
2022/05/29 09:54:02;;;;;;;3.20;0.50;;;;;;;9.43;48.97;101313.81;4957826;28;20059;-77
2022/05/29 09:56:34;;;;;;;8.05;1.15;;;;;;;9.46;49.38;101316.34;4955425;28;20065;-76
2022/05/29 09:59:12;;;;;;;9.40;0.77;;;;;;;9.54;48.91;101312.63;4952627;28;20049;-77
2022/05/29 10:01:45;;;;;;;10.52;0.93;;;;;;;9.58;48.78;101310.78;4966799;28;20090;-75
2022/05/29 10:04:35;;;;;;;8.85;1.08;;;;;;;9.94;48.55;101315.84;4960182;28;20078;-77
2022/05/29 10:07:16;;;;;;;12.73;0.82;;;;;;;10.10;48.25;101301.44;4962245;28;20034;-75
2022/05/29 10:10:45;;;;;;;5.90;0.70;;;;;;;9.60;48.88;101311.59;4942347;28;20035;-75
2022/05/29 10:13:40;;;;;;;9.93;0.85;;;;;;;8.76;50.30;101306.91;4935517;28;20362;-77
2022/05/29 10:16:12;;;;;;;5.30;0.40;;;;;;;9.32;49.62;101307.16;4964000;28;20078;-77
2022/05/29 10:18:44;;;;;;;9.98;0.73;;;;;;;9.38;49.80;101311.34;4978146;28;20045;-76
2022/05/29 10:21:24;;;;;;;14.38;2.38;;;;;;;9.33;50.00;101305.41;4967364;28;20038;-78
2022/05/29 10:24:09;;;;;;;10.85;2.08;;;;;;;9.63;49.95;101305.41;4938402;28;20042;-76
2022/05/29 10:26:38;;;;;;;8.35;1.48;;;;;;;9.98;48.86;101307.88;4966623;28;20057;-77
2022/05/29 10:29:21;;;;;;;6.70;0.45;;;;;;;9.64;48.01;101297.56;4974729;28;20051;-77
2022/05/29 10:31:50;;;;;;;9.40;0.45;;;;;;;8.92;49.44;101310.84;4946535;28;20039;-78
2022/05/29 10:34:29;;;;;;;12.10;0.82;;;;;;;9.64;47.78;101312.38;4945952;28;20298;-75
2022/05/29 10:37:24;;;;;;;8.23;0.65;;;;;;;9.71;47.69;101313.88;4960544;28;20035;-76
2022/05/29 10:39:52;;;;;;;8.98;0.52;;;;;;;10.09;47.69;101311.91;4978765;28;20047;-77
2022/05/29 10:42:51;;;;;;;7.28;1.55;;;;;;;8.89;49.21;101317.88;4948876;28;20055;-78
2022/05/29 10:45:32;;;;;;;10.52;1.65;;;;;;;9.37;48.29;101315.72;4970624;28;20227;-79
2022/05/29 10:48:00;;;;;;;;;;;;;;;9.54;47.13;101312.63;4945000;28;20059;-79
2022/05/29 10:50:47;;;;;;;5.45;0.47;;;;;;;10.24;46.86;101314.06;4978068;28;19918;-80
2022/05/29 10:53:50;;;;;;;10.55;0.57;;;;;;;10.15;46.33;101299.53;4973300;28;20047;-77
2022/05/29 10:56:31;;;;;;;6.35;0.52;;;;;;;9.79;46.50;101312.81;4967039;28;20470;-77
2022/05/29 10:59:24;;;;;;;6.22;0.45;;;;;;;10.05;46.54;101305.91;4935501;28;20049;-77
2022/05/29 11:06:01;;;;;;;5.75;0.60;;;;;;;9.70;47.62;101306.94;4966296;28;20050;-77
2022/05/29 11:08:52;;;;;;;6.18;1.50;;;;;;;9.84;47.84;101303.97;4957288;28;20043;-78
2022/05/29 11:11:50;;;;;;;10.07;0.57;;;;;;;9.71;47.87;101301.69;4977756;28;20031;-79
2022/05/29 11:14:36;;;;;;;6.55;0.70;;;;;;;9.76;47.79;101310.22;4966571;28;20055;-78
2022/05/29 11:17:47;;;;;;;13.52;1.00;;;;;;;9.66;47.41;101306.19;4936160;28;20050;-77
2022/05/29 11:20:12;;;;;;;9.52;1.45;;;;;;;9.98;47.17;101312.25;4924075;28;20058;-79
2022/05/29 11:23:23;;;;;;;10.07;1.40;;;;;;;9.88;47.62;101313.41;4974557;28;20051;-75
2022/05/29 11:26:31;;;;;;;9.68;1.23;;;;;;;9.16;49.87;101298.03;4965057;28;20060;-77
2022/05/29 11:29:18;;;;;;;8.38;0.50;;;;;;;9.89;49.25;101305.53;4954152;28;20702;-78
2022/05/29 11:31:53;;;;;;;7.35;0.70;;;;;;;9.74;48.65;101298.97;4979155;28;20030;-77
2022/05/29 11:34:31;;;;;;;6.95;0.70;;;;;;;9.65;47.92;101294.03;4967339;28;20046;-78
2022/05/29 11:37:34;;;;;;;10.68;1.00;;;;;;;10.05;46.77;101297.22;4961605;28;20170;-76
2022/05/29 11:40:26;;;;;;;5.50;0.50;;;;;;;10.13;46.16;101288.25;4964600;28;20039;-76
2022/05/29 11:43:08;;;;;;;5.97;0.93;;;;;;;10.90;45.66;101292.75;4922437;28;20114;-77
2022/05/29 11:51:58;;;;;;;7.93;1.15;;;;;;;10.94;42.20;101276.88;4974824;28;20043;-77
2022/05/29 11:54:40;;;;;;;12.88;2.55;;;;;;;10.05;45.86;101287.63;4968981;28;20077;-78
2022/05/29 11:57:19;;;;;;;10.30;1.63;;;;;;;9.98;46.94;101291.34;4968696;28;20055;-79
2022/05/29 11:59:44;;;;;;;8.10;1.23;;;;;;;9.50;47.94;101289.25;4959018;28;20040;-80
2022/05/29 12:02:22;;;;;;;9.70;0.60;;;;;;;9.46;48.90;101303.31;4969727;28;20047;-78
2022/05/29 12:04:57;;;;;;;8.98;1.00;;;;;;;10.00;47.81;101294.78;4971271;28;20042;-80
2022/05/29 12:07:33;;;;;;;10.20;1.13;;;;;;;9.54;47.49;101301.31;4947357;28;20074;-78
2022/05/29 12:10:07;;;;;;;3.80;0.57;;;;;;;9.40;47.40;101299.09;4952386;28;20306;-77
2022/05/29 12:13:01;;;;;;;9.13;1.30;;;;;;;10.01;45.84;101291.25;4959027;28;20059;-80
2022/05/29 12:15:30;;;;;;;10.23;1.40;;;;;;;10.16;44.89;101288.16;4946929;28;20307;-79
2022/05/29 12:18:09;;;;;;;11.00;1.27;;;;;;;10.29;43.67;101287.78;4954862;28;20093;-80
2022/05/29 12:20:43;;;;;;;5.07;1.05;;;;;;;10.46;43.60;101292.44;4956096;28;20031;-79
2022/05/29 12:23:32;;;;;;;10.82;1.13;;;;;;;11.10;42.47;101289.41;4947559;28;20097;-80
2022/05/29 12:26:18;;;;;;;6.53;0.80;;;;;;;10.63;43.34;101282.28;4956507;28;20038;-79
2022/05/29 12:28:50;;;;;;;7.20;1.20;;;;;;;11.38;42.47;101290.13;4953813;28;20281;-78
2022/05/29 12:31:21;;;;;;;;;;;;;;;11.07;42.71;101287.78;4960776;28;20257;-79
2022/05/29 12:33:47;;;;;;;17.10;1.17;;;;;;;11.19;42.41;101286.47;4951063;28;19922;-77
2022/05/29 12:36:47;;;;;;;12.60;0.75;;;;;;;10.72;43.50;101291.56;4952590;28;20060;-78
2022/05/29 12:39:43;;;;;;;5.57;1.05;;;;;;;10.78;43.29;101280.91;4952971;28;20035;-79
2022/05/29 12:42:33;;;;;;;14.65;1.42;;;;;;;10.70;43.15;101288.16;4951099;28;20035;-78
2022/05/29 12:45:15;;;;;;;6.15;0.80;;;;;;;10.68;42.46;101287.34;4926526;28;20039;-79
2022/05/29 12:47:50;;;;;;;6.70;1.00;;;;;;;10.16;42.18;101285.53;4930811;28;20134;-78
2022/05/29 12:50:47;;;;;;;13.27;1.55;;;;;;;10.26;42.54;101291.34;4942440;28;20557;-80
2022/05/29 12:53:45;;;;;;;8.68;1.30;;;;;;;10.61;42.49;101284.94;4920337;28;20082;-79
2022/05/29 12:56:48;;;;;;;8.43;0.60;;;;;;;10.33;43.11;101286.78;4942233;28;20126;-78
2022/05/29 12:59:27;;;;;;;14.40;1.08;;;;;;;10.55;42.39;101285.16;4953279;28;20150;-79
2022/05/29 13:02:00;;;;;;;9.30;1.17;;;;;;;10.71;41.59;101277.66;4955703;28;20630;-79
2022/05/29 13:04:46;;;;;;;10.25;0.93;;;;;;;10.60;42.18;101285.00;4968561;28;20035;-77
2022/05/29 13:07:20;;;;;;;9.77;1.55;;;;;;;10.76;41.97;101285.34;4958014;28;20621;-77
2022/05/29 13:10:05;;;;;;;8.90;0.80;;;;;;;11.12;41.73;101287.59;4953262;28;20090;-79
2022/05/29 13:12:40;;;;;;;7.72;0.75;;;;;;;10.90;41.28;101285.75;4968942;28;20047;-80
2022/05/29 13:15:10;;;;;;;6.28;0.40;;;;;;;10.40;42.10;101283.06;4958165;28;20478;-78
2022/05/29 13:17:38;;;;;;;7.97;0.82;;;;;;;9.55;42.82;101297.81;4968118;28;20047;-78
2022/05/29 13:20:15;;;;;;;6.88;0.60;;;;;;;10.43;42.09;101294.25;4938057;28;20062;-77
2022/05/29 13:22:55;;;;;;;5.65;0.82;;;;;;;10.59;41.73;101289.38;4929070;28;20046;-77
2022/05/29 13:25:25;;;;;;;10.23;0.93;;;;;;;9.96;42.70;101291.38;4954695;28;20039;-77
2022/05/29 13:27:52;;;;;;;8.07;0.77;;;;;;;9.85;43.72;101303.06;4927783;28;20055;-77
2022/05/29 13:30:36;;;;;;;10.60;0.85;;;;;;;10.29;43.01;101295.63;4954870;28;20035;-80
2022/05/29 13:33:27;;;;;;;5.90;0.82;;;;;;;10.35;42.21;101296.28;4966208;28;20038;-77
2022/05/29 13:35:53;;;;;;;11.43;1.15;;;;;;;10.18;42.58;101302.03;4954558;28;20042;-76
2022/05/29 13:38:44;;;;;;;6.82;0.55;;;;;;;10.36;42.13;101289.28;4958374;28;20043;-77
2022/05/29 13:41:29;;;;;;;14.88;1.35;;;;;;;10.71;41.33;101285.50;4957367;28;20043;-77
2022/05/29 13:43:55;;;;;;;8.43;0.60;;;;;;;11.43;41.29;101290.81;4939293;28;20117;-77
2022/05/29 13:46:26;;;;;;;6.70;0.90;;;;;;;10.79;39.54;101296.56;4954693;28;20035;-76
2022/05/29 13:49:20;;;;;;;6.45;0.65;;;;;;;10.83;39.89;101292.94;4933940;28;20051;-78
2022/05/29 13:51:48;;;;;;;5.80;0.73;;;;;;;10.79;40.57;101295.69;4937485;28;20069;-78
2022/05/29 13:54:27;;;;;;;7.28;1.02;;;;;;;10.96;41.89;101309.06;4956020;28;20034;-76
2022/05/29 13:57:02;;;;;;;7.30;0.75;;;;;;;10.40;42.71;101309.19;4953566;28;20031;-77
2022/05/29 14:05:49;;;;;;;7.50;0.70;;;;;;;10.21;42.42;101311.50;4973950;28;20408;-78
2022/05/29 14:08:18;;;;;;;7.90;1.00;;;;;;;9.74;42.26;101301.59;4942339;28;20050;-79
2022/05/29 14:10:59;;;;;;;6.50;1.08;;;;;;;9.80;42.43;101304.06;4975089;28;20086;-79
2022/05/29 14:13:45;;;;;;;12.13;0.57;;;;;;;10.08;41.79;101303.22;4963090;28;20137;-80
2022/05/29 14:16:30;;;;;;;8.32;0.75;;;;;;;10.21;41.65;101296.72;4963040;28;20097;-78
2022/05/29 14:19:02;;;;;;;5.10;1.08;;;;;;;10.75;40.94;101299.31;4972579;28;20098;-76
2022/05/29 14:21:41;;;;;;;6.38;0.68;;;;;;;11.22;40.28;101299.47;4945071;28;20043;-77
2022/05/29 14:24:30;;;;;;;5.95;0.82;;;;;;;10.87;39.51;101293.69;4976942;28;20047;-78
2022/05/29 14:26:59;;;;;;;14.00;1.27;;;;;;;10.69;40.10;101295.16;4943490;28;20039;-77
2022/05/29 14:30:13;;;;;;;8.40;0.50;;;;;;;10.87;39.67;101288.47;4946328;28;20058;-78
2022/05/29 14:33:20;;;;;;;6.75;0.80;;;;;;;11.12;39.68;101292.84;4929312;28;20051;-77
2022/05/29 14:36:15;;;;;;;6.70;0.60;;;;;;;10.93;40.54;101293.50;4975490;28;20043;-80
2022/05/29 14:39:05;;;;;;;12.40;1.58;;;;;;;10.19;41.88;101295.03;4947760;28;20573;-75
2022/05/29 14:41:41;;;;;;;9.30;1.30;;;;;;;10.28;41.61;101301.72;4956936;28;20031;-77
2022/05/29 14:44:35;;;;;;;9.10;1.77;;;;;;;9.98;43.43;101291.34;4926320;28;20101;-77
2022/05/29 14:47:06;;;;;;;3.85;0.43;;;;;;;9.77;44.89;101298.91;4937861;28;20573;-78
2022/05/29 14:49:49;;;;;;;8.95;1.23;;;;;;;9.49;45.28;101308.44;4941814;28;20034;-79
2022/05/29 14:52:33;;;;;;;9.90;1.08;;;;;;;8.85;47.15;101317.13;4944205;28;20043;-78
2022/05/29 14:55:08;;;;;;;9.07;1.50;;;;;;;8.89;46.76;101308.28;4946700;28;20614;-75
2022/05/29 14:57:52;;;;;;;12.60;1.33;;;;;;;9.37;46.17;101301.81;4954506;28;20086;-79
2022/05/29 15:00:31;;;;;;;13.23;1.40;;;;;;;9.71;45.83;101300.84;4949002;28;20039;-77
2022/05/29 15:03:01;;;;;;;10.77;1.98;;;;;;;9.70;45.67;101302.59;4937038;28;20189;-76
2022/05/29 15:05:33;;;;;;;6.28;0.57;;;;;;;8.94;45.85;101297.75;4953228;28;20240;-79
2022/05/29 15:11:01;;;;;;;14.35;1.02;;;;;;;9.80;42.77;101301.44;4969449;28;20031;-79
2022/05/29 15:13:56;;;;;;;8.13;0.88;;;;;;;9.47;42.64;101302.41;4960740;28;20108;-82
2022/05/29 15:16:44;;;;;;;10.25;0.95;;;;;;;9.87;41.79;101302.13;4967541;28;20039;-80
2022/05/29 15:25:11;;;;;;;8.90;0.88;;;;;;;9.67;41.98;101296.59;4965357;28;20091;-77
2022/05/29 15:27:41;;;;;;;7.35;0.98;;;;;;;10.26;40.68;101303.53;4955330;28;20043;-78
2022/05/29 15:30:13;;;;;;;5.75;1.35;;;;;;;10.34;40.28;101298.91;4938563;28;20030;-78
2022/05/29 15:32:40;;;;;;;8.15;0.90;;;;;;;10.50;40.00;101294.91;4951965;28;20465;-78